createdAt,value
2023-05-02T00:00:53.884Z,95185.09
2023-05-02T00:03:48.960Z,95185.94
2023-05-02T00:06:37.898Z,95181.72
2023-05-02T00:09:17.876Z,95182.53
2023-05-02T00:12:04.883Z,95176.63
2023-05-02T00:14:37.984Z,95176.63
2023-05-02T00:17:25.884Z,95185.09
2023-05-02T00:20:05.881Z,95185.06
2023-05-02T00:22:52.899Z,95180.03
2023-05-02T00:25:32.876Z,95185.06
2023-05-02T00:28:26.869Z,95187.63
2023-05-02T00:31:20.905Z,95183.41
2023-05-02T00:34:07.895Z,95185.94
2023-05-02T00:36:41.166Z,95187.63
2023-05-02T00:39:27.884Z,95196.09
2023-05-02T00:42:05.002Z,95195.22
2023-05-02T00:44:51.887Z,95199.47
2023-05-02T00:47:25.112Z,95199.44
2023-05-02T00:50:12.909Z,95207.91
2023-05-02T00:52:46.263Z,95198.59
2023-05-02T00:55:32.909Z,95196.94
2023-05-02T00:58:07.990Z,95198.59
2023-05-02T01:01:21.913Z,95199.44
2023-05-02T01:04:07.188Z,95199.44
2023-05-02T01:07:21.905Z,95196.06
2023-05-02T01:10:38.904Z,95196.91
2023-05-02T01:13:35.948Z,95203.69
2023-05-02T01:16:24.920Z,95202.84
2023-05-02T01:19:05.951Z,95206.19
2023-05-02T01:22:01.924Z,95207.06
2023-05-02T01:25:24.917Z,95213.81
2023-05-02T01:28:04.102Z,95205.34
2023-05-02T01:30:53.949Z,95200.28
2023-05-02T01:33:29.102Z,95204.50
2023-05-02T01:36:16.913Z,95201.94
2023-05-02T01:38:51.168Z,95203.66
2023-05-02T01:41:38.999Z,95190.97
2023-05-02T01:44:20.923Z,95203.69
2023-05-02T01:47:18.968Z,95196.91
2023-05-02T01:50:06.916Z,95192.69
2023-05-02T01:52:40.348Z,95199.47
2023-05-02T01:55:26.966Z,95196.06
2023-05-02T01:58:09.959Z,95199.44
2023-05-02T02:01:05.978Z,95197.72
2023-05-02T02:03:54.015Z,95197.72
2023-05-02T02:06:34.995Z,95203.66
2023-05-02T02:09:21.916Z,95205.34
2023-05-02T02:12:19.018Z,95203.66
2023-05-02T02:15:27.909Z,95197.72
2023-05-02T02:18:20.190Z,95199.47
2023-05-02T02:21:07.949Z,95199.47
2023-05-02T02:23:43.579Z,95199.44
2023-05-02T02:26:30.049Z,95205.38
2023-05-02T02:29:03.129Z,95198.59
2023-05-02T02:31:50.005Z,95205.38
2023-05-02T02:34:23.111Z,95201.97
2023-05-02T02:37:25.021Z,95206.19
2023-05-02T02:40:17.152Z,95206.19
2023-05-02T02:43:24.961Z,95207.00
2023-05-02T02:46:17.105Z,95205.28
2023-05-02T02:49:33.946Z,95199.34
2023-05-02T02:53:01.950Z,95202.69
2023-05-02T02:56:08.932Z,95200.94
2023-05-02T02:59:13.937Z,95213.63
2023-05-02T03:02:10.986Z,95212.72
2023-05-02T03:04:54.944Z,95217.78
2023-05-02T03:07:41.923Z,95224.56
2023-05-02T03:10:21.957Z,95219.47
2023-05-02T03:13:08.945Z,95219.47
2023-05-02T03:16:00.346Z,95226.19
2023-05-02T03:18:47.947Z,95221.09
2023-05-02T03:21:21.383Z,95222.81
2023-05-02T03:24:09.945Z,95228.72
2023-05-02T03:26:43.049Z,95227.09
2023-05-02T03:29:30.016Z,95233.00
2023-05-02T03:32:03.316Z,95227.13
2023-05-02T03:34:49.968Z,95233.03
2023-05-02T03:37:23.062Z,95239.81
2023-05-02T03:40:10.005Z,95235.56
2023-05-02T03:42:44.052Z,95244.06
2023-05-02T03:45:30.958Z,95239.88
2023-05-02T03:48:04.109Z,95242.44
2023-05-02T03:50:50.991Z,95247.59
2023-05-02T03:53:30.952Z,95246.75
2023-05-02T03:56:17.953Z,95240.91
2023-05-02T03:58:51.060Z,95245.19
2023-05-02T04:01:38.043Z,95245.22
2023-05-02T04:04:11.498Z,95252.00
2023-05-02T04:06:57.963Z,95244.44
2023-05-02T04:09:31.103Z,95252.91
2023-05-02T04:12:17.963Z,95253.81
2023-05-02T04:14:51.183Z,95253.81
2023-05-02T04:17:38.004Z,95258.91
2023-05-02T04:20:18.966Z,95257.22
2023-05-02T04:23:05.971Z,95258.94
2023-05-02T04:25:39.094Z,95262.34
2023-05-02T04:28:27.978Z,95261.53
2023-05-02T04:31:01.106Z,95270.00
2023-05-02T04:33:48.024Z,95261.53
2023-05-02T04:36:21.077Z,95266.63
2023-05-02T04:39:07.969Z,95269.13
2023-05-02T04:41:41.663Z,95262.41
2023-05-02T04:44:27.997Z,95268.34
2023-05-02T04:47:01.130Z,95273.44
2023-05-02T04:49:47.999Z,95272.63
2023-05-02T04:52:21.080Z,95277.78
2023-05-02T04:55:08.006Z,95276.97
2023-05-02T04:57:47.970Z,95269.34
2023-05-02T05:00:34.996Z,95270.19
2023-05-02T05:03:18.068Z,95260.84
2023-05-02T05:06:12.027Z,95268.44
2023-05-02T05:08:59.000Z,95264.13
2023-05-02T05:11:33.081Z,95264.06
2023-05-02T05:14:19.986Z,95267.31
2023-05-02T05:16:53.172Z,95269.72
2023-05-02T05:19:39.997Z,95271.28
2023-05-02T05:22:13.090Z,95269.44
2023-05-02T05:25:03.005Z,95255.63
2023-05-02T05:27:43.040Z,95257.94
2023-05-02T05:30:47.990Z,95261.03
2023-05-02T05:33:28.041Z,95255.63
2023-05-02T05:36:23.561Z,95258.72
2023-05-02T05:39:18.027Z,95261.88
2023-05-02T05:42:04.996Z,95265.72
2023-05-02T05:44:45.015Z,95264.50
2023-05-02T05:47:32.195Z,95257.19
2023-05-02T05:50:06.154Z,95260.94
2023-05-02T05:52:53.025Z,95258.69
2023-05-02T05:55:33.009Z,95263.97
2023-05-02T05:58:27.011Z,95275.34
2023-05-02T06:01:22.004Z,95259.41
2023-05-02T06:04:10.355Z,95268.34
2023-05-02T06:06:51.186Z,95270.41
2023-05-02T06:09:38.024Z,95259.44
2023-05-02T06:12:11.120Z,95261.47
2023-05-02T06:14:58.043Z,95255.69
2023-05-02T06:17:31.404Z,95260.19
2023-05-02T06:20:18.764Z,95269.06
2023-05-02T06:22:52.162Z,95261.47
2023-05-02T06:25:40.260Z,95262.69
2023-05-02T06:28:20.013Z,95255.97
2023-05-02T06:31:09.109Z,95263.13
2023-05-02T06:33:50.014Z,95259.94
2023-05-02T06:36:44.027Z,95259.25
2023-05-02T06:39:38.047Z,95262.63
2023-05-02T06:42:32.019Z,95263.25
2023-05-02T06:45:19.058Z,95269.72
2023-05-02T06:47:52.233Z,95263.53
2023-05-02T06:50:39.066Z,95267.66
2023-05-02T06:53:15.243Z,95257.31
2023-05-02T06:56:02.061Z,95262.34
2023-05-02T06:58:44.206Z,95258.28
2023-05-02T07:01:38.252Z,95260.03
2023-05-02T07:04:25.902Z,95264.28
2023-05-02T07:06:59.147Z,95264.38
2023-05-02T07:09:46.063Z,95265.25
2023-05-02T07:12:19.152Z,95263.75
2023-05-02T07:15:06.062Z,95256.78
2023-05-02T07:17:39.132Z,95262.72
2023-05-02T07:20:26.128Z,95260.88
2023-05-02T07:22:59.150Z,95263.34
2023-05-02T07:25:47.065Z,95265.03
2023-05-02T07:28:27.045Z,95261.81
2023-05-02T07:31:14.069Z,95268.44
2023-05-02T07:33:47.155Z,95266.41
2023-05-02T07:36:34.072Z,95265.00
2023-05-02T07:39:14.059Z,95265.53
2023-05-02T07:42:01.067Z,95261.25
2023-05-02T07:44:35.175Z,95270.09
2023-05-02T07:47:22.109Z,95268.38
2023-05-02T07:49:59.506Z,95257.16
2023-05-02T07:52:46.091Z,95269.34
2023-05-02T07:55:19.188Z,95266.22
2023-05-02T07:58:13.086Z,95254.94
2023-05-02T08:01:00.085Z,95255.22
2023-05-02T08:03:40.276Z,95257.28
2023-05-02T08:06:27.164Z,95245.19
2023-05-02T08:09:01.473Z,95251.72
2023-05-02T08:11:48.249Z,95254.66
2023-05-02T08:14:30.080Z,95255.78
2023-05-02T08:17:17.100Z,95257.81
2023-05-02T08:20:02.795Z,95261.03
2023-05-02T08:22:50.097Z,95254.63
2023-05-02T08:25:23.221Z,95250.84
2023-05-02T08:28:10.117Z,95249.94
2023-05-02T08:30:52.092Z,95250.88
2023-05-02T08:33:46.222Z,95246.59
2023-05-02T08:36:35.135Z,95243.88
2023-05-02T08:39:16.154Z,95245.75
2023-05-02T08:42:03.133Z,95239.81
2023-05-02T08:44:43.123Z,95246.22
2023-05-02T08:47:32.148Z,95236.53
2023-05-02T08:50:06.369Z,95244.09
2023-05-02T08:52:56.103Z,95243.97
2023-05-02T08:55:30.249Z,95226.19
2023-05-02T08:58:24.120Z,95231.19
2023-05-02T09:01:28.154Z,95235.44
2023-05-02T09:04:16.152Z,95246.09
2023-05-02T09:06:50.376Z,95250.38
2023-05-02T09:09:39.146Z,95243.50
2023-05-02T09:12:20.298Z,95244.78
2023-05-02T09:15:23.127Z,95245.88
2023-05-02T09:17:56.303Z,95250.66
2023-05-02T09:20:48.139Z,95261.97
2023-05-02T09:23:28.096Z,95268.53
2023-05-02T09:26:31.713Z,95273.63
2023-05-02T09:29:34.133Z,95272.34
2023-05-02T09:32:21.169Z,95260.75
2023-05-02T09:35:20.162Z,95263.50
2023-05-02T09:38:15.150Z,95258.72
2023-05-02T09:41:10.146Z,95272.44
2023-05-02T09:44:06.314Z,95271.59
2023-05-02T09:46:54.221Z,95279.66
2023-05-02T09:49:56.145Z,95275.16
2023-05-02T09:52:43.129Z,95263.03
2023-05-02T09:55:35.153Z,95270.50
2023-05-02T09:58:37.130Z,95254.81
2023-05-02T10:01:26.180Z,95250.97
2023-05-02T10:04:01.050Z,95246.91
2023-05-02T10:06:52.225Z,95247.50
2023-05-02T10:09:32.192Z,95261.06
2023-05-02T10:12:22.150Z,95266.78
2023-05-02T10:15:05.182Z,95262.81
2023-05-02T10:18:02.206Z,95257.94
2023-05-02T10:20:56.188Z,95257.06
2023-05-02T10:23:42.169Z,95258.78
2023-05-02T10:26:37.182Z,95240.53
2023-05-02T10:29:31.187Z,95257.28
2023-05-02T10:32:28.241Z,95254.19
2023-05-02T10:35:22.181Z,95253.31
2023-05-02T10:38:22.338Z,95249.41
2023-05-02T10:41:08.191Z,95260.56
2023-05-02T10:43:52.346Z,95271.28
2023-05-02T10:46:48.212Z,95267.06
2023-05-02T10:49:29.966Z,95259.00
2023-05-02T10:52:40.372Z,95261.53
2023-05-02T10:55:35.187Z,95262.06
2023-05-02T10:58:32.220Z,95267.34
2023-05-02T11:01:34.302Z,95268.31
2023-05-02T11:04:08.383Z,95267.91
2023-05-02T11:07:06.184Z,95270.75
2023-05-02T11:09:47.180Z,95262.34
2023-05-02T11:13:00.204Z,95273.50
2023-05-02T11:15:47.186Z,95277.75
2023-05-02T11:18:21.327Z,95273.88
2023-05-02T11:21:32.206Z,95273.34
2023-05-02T11:24:56.332Z,95272.84
2023-05-02T11:27:52.210Z,95282.06
2023-05-02T11:30:50.253Z,95277.28
2023-05-02T11:33:24.416Z,95280.47
2023-05-02T11:36:11.254Z,95278.16
2023-05-02T11:38:45.314Z,95281.13
2023-05-02T11:41:48.219Z,95288.78
2023-05-02T11:44:21.334Z,95284.00
2023-05-02T11:47:09.208Z,95284.22
2023-05-02T11:49:50.226Z,95295.31
2023-05-02T11:52:38.247Z,95288.31
2023-05-02T11:55:20.231Z,95289.34
2023-05-02T11:58:08.241Z,95294.38
2023-05-02T12:00:49.234Z,95295.84
2023-05-02T12:03:46.525Z,95292.22
2023-05-02T12:06:40.246Z,95292.28
2023-05-02T12:09:34.256Z,95288.72
2023-05-02T12:12:21.243Z,95291.69
2023-05-02T12:14:55.404Z,95300.16
2023-05-02T12:17:55.426Z,95299.09
2023-05-02T12:20:29.412Z,95287.19
2023-05-02T12:23:17.267Z,95302.53
2023-05-02T12:25:57.283Z,95309.66
2023-05-02T12:29:02.219Z,95295.00
2023-05-02T12:32:06.352Z,95290.75
2023-05-02T12:35:00.242Z,95292.66
2023-05-02T12:37:54.251Z,95300.72
2023-05-02T12:40:41.265Z,95294.34
2023-05-02T12:43:14.434Z,95286.81
2023-05-02T12:46:27.340Z,95282.91
2023-05-02T12:49:24.272Z,95277.44
2023-05-02T12:52:18.259Z,95280.31
2023-05-02T12:55:32.449Z,95282.41
2023-05-02T12:58:23.292Z,95282.50
2023-05-02T13:00:56.511Z,95268.56
2023-05-02T13:03:43.375Z,95276.38
2023-05-02T13:06:25.319Z,95269.69
2023-05-02T13:09:20.276Z,95268.06
2023-05-02T13:12:14.303Z,95267.97
2023-05-02T13:15:01.341Z,95261.53
2023-05-02T13:17:42.472Z,95262.03
2023-05-02T13:20:36.278Z,95258.25
2023-05-02T13:23:30.335Z,95253.72
2023-05-02T13:26:18.308Z,95254.97
2023-05-02T13:28:51.428Z,95255.38
2023-05-02T13:31:38.335Z,95246.75
2023-05-02T13:34:11.425Z,95244.66
2023-05-02T13:36:58.338Z,95245.59
2023-05-02T13:39:31.396Z,95247.44
2023-05-02T13:42:18.370Z,95246.75
2023-05-02T13:44:51.494Z,95245.91
2023-05-02T13:47:39.481Z,95241.13
2023-05-02T13:50:14.398Z,95240.88
2023-05-02T13:53:01.295Z,95234.25
2023-05-02T13:55:41.315Z,95241.47
2023-05-02T13:58:35.318Z,95243.06
2023-05-02T14:01:29.368Z,95242.63
2023-05-02T14:04:16.302Z,95247.19
2023-05-02T14:06:56.352Z,95237.28
2023-05-02T14:09:43.295Z,95237.69
2023-05-02T14:12:16.626Z,95235.00
2023-05-02T14:15:03.322Z,95228.47
2023-05-02T14:17:44.379Z,95229.38
2023-05-02T14:20:31.328Z,95237.03
2023-05-02T14:23:05.522Z,95223.09
2023-05-02T14:25:54.301Z,95227.72
2023-05-02T14:28:28.449Z,95232.66
2023-05-02T14:31:15.351Z,95225.78
2023-05-02T14:33:48.537Z,95219.84
2023-05-02T14:36:35.311Z,95228.81
2023-05-02T14:39:08.452Z,95230.13
2023-05-02T14:41:55.345Z,95227.03
2023-05-02T14:44:28.528Z,95228.03
2023-05-02T14:47:15.374Z,95230.69
2023-05-02T14:49:55.318Z,95229.97
2023-05-02T14:52:49.343Z,95228.69
2023-05-02T14:55:43.377Z,95230.09
2023-05-02T14:58:30.315Z,95228.56
2023-05-02T15:01:10.384Z,95232.38
2023-05-02T15:04:06.790Z,95234.31
2023-05-02T15:06:41.601Z,95235.44
2023-05-02T15:09:28.343Z,95245.69
2023-05-02T15:12:05.284Z,95243.25
2023-05-02T15:14:52.356Z,95244.84
2023-05-02T15:17:26.012Z,95243.41
2023-05-02T15:20:13.366Z,95247.66
2023-05-02T15:22:46.543Z,95247.53
2023-05-02T15:25:33.392Z,95247.59
2023-05-02T15:28:14.361Z,95240.81
2023-05-02T15:31:01.372Z,95247.78
2023-05-02T15:33:34.485Z,95246.25
2023-05-02T15:36:22.358Z,95242.88
2023-05-02T15:38:55.516Z,95241.13
2023-05-02T15:41:42.363Z,95237.69
2023-05-02T15:44:22.383Z,95241.34
2023-05-02T15:47:11.385Z,95245.94
2023-05-02T15:49:45.511Z,95244.34
2023-05-02T15:52:32.436Z,95254.88
2023-05-02T15:55:05.760Z,95244.72
2023-05-02T15:57:52.379Z,95251.84
2023-05-02T16:00:33.842Z,95252.91
2023-05-02T16:03:27.562Z,95251.44
2023-05-02T16:06:24.454Z,95250.00
2023-05-02T16:09:13.387Z,95254.41
2023-05-02T16:11:53.401Z,95252.81
2023-05-02T16:14:47.397Z,95252.44
2023-05-02T16:17:41.465Z,95250.91
2023-05-02T16:20:28.465Z,95253.84
2023-05-02T16:23:01.601Z,95249.78
2023-05-02T16:25:48.488Z,95254.34
2023-05-02T16:28:21.651Z,95259.66
2023-05-02T16:31:17.455Z,95255.78
2023-05-02T16:33:51.080Z,95253.31
2023-05-02T16:36:38.485Z,95256.91
2023-05-02T16:39:18.426Z,95252.88
2023-05-02T16:42:05.502Z,95260.75
2023-05-02T16:44:38.590Z,95254.13
2023-05-02T16:47:25.444Z,95275.84
2023-05-02T16:50:06.450Z,95273.47
2023-05-02T16:52:53.419Z,95268.50
2023-05-02T16:55:26.549Z,95271.38
2023-05-02T16:58:13.434Z,95271.56
2023-05-02T17:00:46.673Z,95279.47
2023-05-02T17:03:33.545Z,95273.75
2023-05-02T17:06:07.714Z,95270.44
2023-05-02T17:08:54.420Z,95271.59
2023-05-02T17:11:28.565Z,95281.44
2023-05-02T17:14:15.454Z,95282.63
2023-05-02T17:16:48.529Z,95284.78
2023-05-02T17:19:36.426Z,95288.88
2023-05-02T17:22:16.470Z,95291.84
2023-05-02T17:25:03.440Z,95308.56
2023-05-02T17:27:44.464Z,95311.47
2023-05-02T17:30:38.497Z,95312.09
2023-05-02T17:33:25.443Z,95324.69
2023-05-02T17:35:58.647Z,95332.75
2023-05-02T17:38:45.489Z,95334.13
2023-05-02T17:41:19.587Z,95339.81
2023-05-02T17:44:06.458Z,95347.09
2023-05-02T17:46:39.729Z,95343.09
2023-05-02T17:49:26.550Z,95341.66
2023-05-02T17:51:59.632Z,95350.50
2023-05-02T17:54:46.471Z,95355.09
2023-05-02T17:57:26.452Z,95356.28
2023-05-02T18:00:20.448Z,95359.28
2023-05-02T18:03:14.586Z,95371.00
2023-05-02T18:06:08.573Z,95381.75
2023-05-02T18:08:55.448Z,95387.34
2023-05-02T18:11:28.566Z,95395.41
2023-05-02T18:14:15.468Z,95388.91
2023-05-02T18:16:48.870Z,95386.84
2023-05-02T18:19:36.435Z,95404.63
2023-05-02T18:22:09.616Z,95396.34
2023-05-02T18:24:56.514Z,95412.97
2023-05-02T18:27:36.560Z,95410.72
2023-05-02T18:30:23.479Z,95412.56
2023-05-02T18:33:03.556Z,95415.50
2023-05-02T18:35:57.472Z,95415.94
2023-05-02T18:38:40.456Z,95423.13
2023-05-02T18:41:34.460Z,95422.56
2023-05-02T18:44:28.447Z,95427.97
2023-05-02T18:47:15.466Z,95432.56
2023-05-02T18:49:50.232Z,95432.72
2023-05-02T18:52:37.474Z,95437.16
2023-05-02T18:55:12.746Z,95439.88
2023-05-02T18:57:59.551Z,95435.72
2023-05-02T19:00:34.363Z,95449.59
2023-05-02T19:03:23.519Z,95453.22
2023-05-02T19:05:57.802Z,95449.16
2023-05-02T19:08:48.497Z,95459.63
2023-05-02T19:11:23.687Z,95451.97
2023-05-02T19:14:10.483Z,95464.84
2023-05-02T19:16:47.692Z,95468.25
2023-05-02T19:19:34.492Z,95464.88
2023-05-02T19:22:14.487Z,95470.16
2023-05-02T19:25:08.481Z,95465.06
2023-05-02T19:28:02.553Z,95465.94
2023-05-02T19:30:50.795Z,95459.19
2023-05-02T19:33:25.831Z,95468.63
2023-05-02T19:36:13.485Z,95466.97
2023-05-02T19:38:54.579Z,95472.13
2023-05-02T19:41:49.493Z,95466.16
2023-05-02T19:44:38.478Z,95475.72
2023-05-02T19:47:18.497Z,95477.38
2023-05-02T19:50:12.502Z,95481.66
2023-05-02T19:53:08.496Z,95487.66
2023-05-02T19:55:55.500Z,95482.53
2023-05-02T19:58:28.838Z,95482.63
2023-05-02T20:01:15.560Z,95480.09
2023-05-02T20:03:48.784Z,95481.88
2023-05-02T20:06:35.636Z,95486.22
2023-05-02T20:09:15.496Z,95491.50
2023-05-02T20:12:02.590Z,95489.75
2023-05-02T20:14:35.707Z,95485.50
2023-05-02T20:17:22.518Z,95490.63
2023-05-02T20:20:03.659Z,95500.09
2023-05-02T20:22:51.514Z,95499.38
2023-05-02T20:25:31.527Z,95498.47
2023-05-02T20:28:25.506Z,95505.38
2023-05-02T20:31:12.567Z,95495.97
2023-05-02T20:33:46.237Z,95501.13
2023-05-02T20:36:35.505Z,95497.72
2023-05-02T20:39:10.251Z,95505.44
2023-05-02T20:41:59.544Z,95502.97
2023-05-02T20:44:34.139Z,95503.94
2023-05-02T20:47:20.560Z,95501.44
2023-05-02T20:50:09.600Z,95508.31
2023-05-02T20:53:03.554Z,95516.06
2023-05-02T20:55:57.520Z,95506.75
2023-05-02T20:58:51.594Z,95504.34
2023-05-02T21:01:48.599Z,95511.28
2023-05-02T21:04:42.567Z,95510.38
2023-05-02T21:07:36.572Z,95509.53
2023-05-02T21:10:34.569Z,95512.09
2023-05-02T21:13:28.591Z,95505.25
2023-05-02T21:16:25.617Z,95524.22
2023-05-02T21:18:58.759Z,95523.38
2023-05-02T21:21:45.522Z,95525.97
2023-05-02T21:24:18.742Z,95519.97
2023-05-02T21:27:05.702Z,95533.66
2023-05-02T21:29:38.724Z,95535.41
2023-05-02T21:32:25.626Z,95543.09
2023-05-02T21:34:58.664Z,95535.34
2023-05-02T21:37:45.636Z,95529.41
2023-05-02T21:40:19.826Z,95539.72
2023-05-02T21:43:06.594Z,95540.56
2023-05-02T21:45:42.708Z,95542.38
2023-05-02T21:48:29.535Z,95554.38
2023-05-02T21:51:02.713Z,95556.13
2023-05-02T21:53:49.530Z,95555.34
2023-05-02T21:56:22.706Z,95550.31
2023-05-02T21:59:09.597Z,95552.06
2023-05-02T22:01:42.805Z,95544.31
2023-05-02T22:04:30.564Z,95545.16
2023-05-02T22:07:03.685Z,95545.97
2023-05-02T22:09:50.588Z,95549.44
2023-05-02T22:12:31.594Z,95547.78
2023-05-02T22:15:25.589Z,95541.06
2023-05-02T22:18:16.585Z,95545.44
2023-05-02T22:20:50.771Z,95548.88
2023-05-02T22:23:37.596Z,95555.72
2023-05-02T22:26:17.648Z,95554.94
2023-05-02T22:29:11.656Z,95544.72
2023-05-02T22:32:08.632Z,95544.78
2023-05-02T22:35:02.590Z,95549.09
2023-05-02T22:37:49.593Z,95543.13
2023-05-02T22:40:29.589Z,95546.56
2023-05-02T22:43:16.579Z,95548.28
2023-05-02T22:45:51.338Z,95561.97
2023-05-02T22:48:38.597Z,95552.59
2023-05-02T22:51:11.692Z,95559.53
2023-05-02T22:54:00.613Z,95556.13
2023-05-02T22:56:36.164Z,95555.31
2023-05-02T22:59:23.604Z,95556.16
2023-05-02T23:01:56.832Z,95561.28
2023-05-02T23:04:43.593Z,95554.47
2023-05-02T23:07:23.636Z,95549.41
2023-05-02T23:10:24.307Z,95554.53
2023-05-02T23:13:10.589Z,95553.75
2023-05-02T23:15:50.692Z,95555.44
2023-05-02T23:18:44.570Z,95555.44
2023-05-02T23:21:39.752Z,95552.09
2023-05-02T23:24:33.678Z,95552.13
2023-05-02T23:27:21.726Z,95557.31
2023-05-02T23:29:54.756Z,95562.47
2023-05-02T23:32:41.676Z,95566.81
2023-05-02T23:35:23.722Z,95578.75
2023-05-02T23:38:14.590Z,95558.31
2023-05-02T23:40:47.749Z,95569.41
2023-05-02T23:43:35.643Z,95559.19
2023-05-02T23:46:08.823Z,95569.44
2023-05-02T23:48:55.637Z,95573.75
2023-05-02T23:51:28.758Z,95566.97
2023-05-02T23:54:15.702Z,95560.19
2023-05-02T23:56:51.031Z,95559.38
2023-05-02T23:59:37.658Z,95563.72
